Time;durP1;ratioP1;P1;durP2;ratioP2;P2;SDS_P1;SDS_P2;PMS_P1;PMS_P2;Temp;Humidity;BMP_temperature;BMP_pressure;BME280_temperature;BME280_humidity;BME280_pressure;Samples;Min_cycle;Max_cycle;Signal;HPM_P1;HPM_P2
2022/01/24 00:01:58;;;;;;;41.00;24.33;;;5.70;99.90;;;;;;5053927;28;20910;-76
2022/01/24 00:04:26;;;;;;;39.42;23.95;;;5.60;99.90;;;;;;5052786;28;20057;-77
2022/01/24 00:06:54;;;;;;;37.30;23.75;;;5.60;99.90;;;;;;5051993;28;20044;-76
2022/01/24 00:09:22;;;;;;;37.25;23.02;;;5.60;99.90;;;;;;5052639;28;20513;-77
2022/01/24 00:27:59;;;;;;;42.95;26.45;;;5.50;99.90;;;;;;5065894;28;20055;-76
2022/01/24 00:30:27;;;;;;;44.67;26.30;;;5.50;99.90;;;;;;5032001;28;20057;-77
2022/01/24 00:32:55;;;;;;;39.88;25.05;;;5.50;99.90;;;;;;5065697;28;20051;-76
2022/01/24 00:35:22;;;;;;;43.60;26.00;;;5.50;99.90;;;;;;5060944;28;20052;-75
2022/01/24 00:37:50;;;;;;;42.65;26.15;;;5.50;99.90;;;;;;5063166;28;20041;-76
2022/01/24 00:40:18;;;;;;;38.88;24.58;;;5.50;99.90;;;;;;5066620;28;20047;-77
2022/01/24 00:42:56;;;;;;;45.70;27.20;;;5.50;99.90;;;;;;5057321;28;20049;-76
2022/01/24 00:56:04;;;;;;;41.72;25.30;;;5.50;99.90;;;;;;5052263;28;20060;-75
2022/01/24 00:58:32;;;;;;;39.83;23.67;;;5.40;99.90;;;;;;5051048;28;20049;-76
2022/01/24 01:01:00;;;;;;;37.78;22.98;;;5.40;99.90;;;;;;5051646;28;20055;-77
2022/01/24 01:03:28;;;;;;;44.13;23.40;;;5.40;99.90;;;;;;5048259;28;20040;-78
2022/01/24 01:06:10;;;;;;;39.30;22.30;;;5.50;99.90;;;;;;5050544;28;20065;-77
2022/01/24 01:20:01;;;;;;;40.55;24.67;;;5.30;99.90;;;;;;5048993;28;20045;-76
2022/01/24 01:22:28;;;;;;;42.72;26.10;;;5.40;99.90;;;;;;5047865;28;20036;-77
2022/01/24 01:24:57;;;;;;;48.15;27.55;;;5.40;99.90;;;;;;5047080;28;20052;-76
2022/01/24 01:27:33;;;;;;;46.58;26.48;;;5.40;99.90;;;;;;5045854;28;20065;-77
2022/01/24 01:30:10;;;;;;;43.05;25.67;;;5.30;99.90;;;;;;5045584;28;20049;-77
2022/01/24 01:32:52;;;;;;;43.33;25.67;;;5.40;99.90;;;;;;5046298;28;20037;-76
2022/01/24 01:38:14;;;;;;;45.78;25.63;;;5.30;99.90;;;;;;5047779;28;20049;-77
2022/01/24 01:54:32;;;;;;;42.88;25.40;;;5.20;99.90;;;;;;5047628;28;20045;-76
2022/01/24 01:57:01;;;;;;;45.10;25.42;;;5.40;99.90;;;;;;5047755;28;20448;-77
2022/01/24 01:59:29;;;;;;;48.20;26.10;;;5.20;99.90;;;;;;5046665;28;20041;-76
2022/01/24 02:01:58;;;;;;;;;;;5.20;99.90;;;;;;5043458;28;20535;-76
2022/01/24 02:04:26;;;;;;;41.78;24.40;;;5.20;99.90;;;;;;5044415;28;20364;-76
2022/01/24 02:06:54;;;;;;;49.10;27.13;;;5.20;99.90;;;;;;5045687;28;20057;-77
2022/01/24 02:09:28;;;;;;;46.05;25.13;;;5.20;99.90;;;;;;5031565;28;20509;-76
2022/01/24 02:11:56;;;;;;;37.10;22.95;;;5.30;99.90;;;;;;5027037;28;20475;-77
2022/01/24 02:14:30;;;;;;;42.50;25.60;;;5.20;99.90;;;;;;5027357;28;20408;-76
2022/01/24 02:17:04;;;;;;;39.47;23.35;;;5.20;99.90;;;;;;5024960;28;20041;-76
2022/01/24 02:19:51;;;;;;;44.35;24.02;;;5.20;99.90;;;;;;5025698;28;20516;-76
2022/01/24 02:25:07;;;;;;;44.08;25.33;;;5.10;99.90;;;;;;5046991;28;20048;-76
2022/01/24 02:27:44;;;;;;;44.85;25.75;;;5.20;99.90;;;;;;5045456;28;20057;-77
2022/01/24 02:30:38;;;;;;;42.38;23.75;;;5.10;99.90;;;;;;5050108;28;20057;-76
2022/01/24 02:33:03;;;;;;;41.30;22.45;;;5.10;99.90;;;;;;5050186;28;20049;-76
2022/01/24 02:35:31;;;;;;;44.78;23.48;;;5.10;99.90;;;;;;5051424;28;20064;-75
2022/01/24 02:38:03;;;;;;;43.38;23.48;;;5.10;99.90;;;;;;5042270;28;20049;-76
2022/01/24 02:40:30;;;;;;;42.80;25.38;;;5.10;99.90;;;;;;5028264;28;20057;-77
2022/01/24 02:48:33;;;;;;;47.08;25.48;;;5.10;99.90;;;;;;5066160;28;20053;-77
2022/01/24 02:53:44;;;;;;;44.28;25.67;;;5.20;99.90;;;;;;5050390;28;20053;-77
2022/01/24 02:56:11;;;;;;;;;;;5.10;99.90;;;;;;5051577;28;20045;-76
2022/01/24 02:58:39;;;;;;;43.50;24.95;;;5.10;99.90;;;;;;5039003;28;19921;-77
2022/01/24 03:01:07;;;;;;;46.20;26.02;;;5.00;99.90;;;;;;5051049;28;20068;-75
2022/01/24 03:03:37;;;;;;;48.38;25.92;;;5.00;99.90;;;;;;5032211;28;20060;-76
2022/01/24 03:06:05;;;;;;;47.50;26.88;;;5.00;99.90;;;;;;5049274;28;20049;-76
2022/01/24 03:08:37;;;;;;;45.80;26.63;;;5.00;99.90;;;;;;5033712;28;20052;-76
2022/01/24 03:11:05;;;;;;;47.30;26.75;;;5.00;99.90;;;;;;5051658;28;20040;-77
2022/01/24 03:13:33;;;;;;;41.22;24.58;;;5.00;99.90;;;;;;5056197;28;20037;-77
2022/01/24 03:16:04;;;;;;;45.13;24.90;;;5.00;99.90;;;;;;5070753;28;20060;-77
2022/01/24 03:18:32;;;;;;;44.03;24.35;;;5.00;99.90;;;;;;5054238;28;20052;-77
2022/01/24 03:21:00;;;;;;;;;;;5.00;99.90;;;;;;5045513;28;20205;-76
2022/01/24 03:23:28;;;;;;;35.67;22.05;;;5.00;99.90;;;;;;5034362;28;19928;-77
2022/01/24 03:25:56;;;;;;;40.90;23.50;;;4.90;99.90;;;;;;5033326;28;20061;-77
2022/01/24 03:28:25;;;;;;;44.72;25.75;;;4.90;99.90;;;;;;5030755;28;20045;-77
2022/01/24 03:30:53;;;;;;;43.92;25.98;;;5.00;99.90;;;;;;5032290;28;20050;-78
2022/01/24 03:33:21;;;;;;;42.50;24.70;;;4.90;99.90;;;;;;5034067;28;20046;-77
2022/01/24 03:35:48;;;;;;;44.40;25.98;;;4.90;99.90;;;;;;5035970;28;20060;-77
2022/01/24 03:38:16;;;;;;;48.70;27.27;;;4.90;99.90;;;;;;5031923;28;20053;-77
2022/01/24 03:40:44;;;;;;;47.33;25.00;;;4.90;99.90;;;;;;5045289;28;20045;-77
2022/01/24 03:43:12;;;;;;;43.40;25.52;;;4.90;99.90;;;;;;5046777;28;20049;-77
2022/01/24 03:45:46;;;;;;;48.08;27.10;;;4.80;99.90;;;;;;5015411;28;20053;-77
2022/01/24 03:51:02;;;;;;;46.40;26.02;;;4.80;99.90;;;;;;5033704;28;20049;-77
2022/01/24 03:53:30;;;;;;;42.80;25.02;;;4.90;99.90;;;;;;5036564;28;20052;-76
2022/01/24 03:55:58;;;;;;;45.70;25.83;;;4.80;99.90;;;;;;5054664;28;20500;-78
2022/01/24 03:58:25;;;;;;;48.22;26.52;;;4.80;99.90;;;;;;5069074;28;20057;-77
2022/01/24 04:00:55;;;;;;;47.92;27.15;;;4.80;99.90;;;;;;5051957;28;20049;-78
2022/01/24 04:03:23;;;;;;;48.30;26.88;;;4.80;99.90;;;;;;5048434;28;20401;-77
2022/01/24 04:05:51;;;;;;;;;;;4.80;99.90;;;;;;5050449;28;20103;-77
2022/01/24 04:08:19;;;;;;;46.05;26.42;;;4.80;99.90;;;;;;5051136;28;19942;-78
2022/01/24 04:10:51;;;;;;;41.35;25.08;;;4.80;99.90;;;;;;5048234;28;20053;-75
2022/01/24 04:13:32;;;;;;;42.33;24.65;;;4.80;99.90;;;;;;5047396;28;20053;-78
2022/01/24 04:18:35;;;;;;;;;;;4.70;99.90;;;;;;5050218;28;20404;-76
2022/01/24 04:24:05;;;;;;;43.70;26.20;;;4.70;99.90;;;;;;5047910;28;20519;-77
2022/01/24 04:26:34;;;;;;;46.33;27.45;;;4.80;99.90;;;;;;5048261;28;20048;-77
2022/01/24 04:29:02;;;;;;;47.30;26.40;;;4.70;99.90;;;;;;5048906;28;20048;-77
2022/01/24 04:31:31;;;;;;;46.63;27.15;;;4.70;99.90;;;;;;5038662;28;20063;-76
2022/01/24 04:33:59;;;;;;;49.75;27.65;;;4.70;99.90;;;;;;5029030;28;20045;-77
2022/01/24 04:36:27;;;;;;;;;;;4.80;99.90;;;;;;5047415;28;20401;-76
2022/01/24 04:38:56;;;;;;;41.83;25.05;;;4.70;99.90;;;;;;5049737;28;19955;-75
2022/01/24 04:41:32;;;;;;;43.45;25.45;;;4.70;99.90;;;;;;5049768;28;20037;-76
2022/01/24 04:52:15;;;;;;;46.25;27.38;;;4.80;99.90;;;;;;5027716;28;20045;-76
2022/01/24 04:54:44;;;;;;;46.55;27.83;;;4.70;99.90;;;;;;5028452;28;20049;-76
2022/01/24 04:57:21;;;;;;;48.83;28.80;;;4.60;99.90;;;;;;5030807;28;20790;-77
2022/01/24 04:59:50;;;;;;;50.72;28.35;;;4.70;99.90;;;;;;5048507;28;20064;-77
2022/01/24 05:02:20;;;;;;;49.55;28.98;;;4.60;99.90;;;;;;5047669;28;20055;-77
2022/01/24 05:04:49;;;;;;;44.05;27.38;;;4.60;99.90;;;;;;5046659;28;20037;-76
2022/01/24 05:07:17;;;;;;;49.83;28.63;;;4.60;99.90;;;;;;5046692;28;20053;-77
2022/01/24 05:12:29;;;;;;;47.80;28.70;;;4.60;99.90;;;;;;5031848;28;20053;-77
2022/01/24 05:23:31;;;;;;;48.60;27.92;;;4.60;99.90;;;;;;5047534;28;20411;-77
2022/01/24 05:26:02;;;;;;;44.28;27.05;;;4.60;99.90;;;;;;5031168;28;20044;-77
2022/01/24 05:28:30;;;;;;;44.70;27.50;;;4.60;99.90;;;;;;5040925;28;20656;-76
2022/01/24 05:30:59;;;;;;;50.20;29.67;;;4.60;99.90;;;;;;5046905;28;20045;-76
2022/01/24 05:33:29;;;;;;;54.72;30.27;;;4.70;99.90;;;;;;5046448;28;21020;-77
2022/01/24 05:35:58;;;;;;;50.65;29.83;;;4.50;99.90;;;;;;5048597;28;20056;-76
2022/01/24 05:38:26;;;;;;;54.70;30.23;;;4.60;99.90;;;;;;5047261;28;20365;-77
2022/01/24 05:40:54;;;;;;;52.58;29.88;;;4.60;99.90;;;;;;5048270;28;20045;-76
2022/01/24 05:43:22;;;;;;;51.00;29.25;;;4.70;99.90;;;;;;5047673;28;20583;-76
2022/01/24 05:45:50;;;;;;;56.45;30.02;;;4.60;99.90;;;;;;5049481;28;20374;-77
2022/01/24 05:48:18;;;;;;;;;;;4.60;99.90;;;;;;5048285;28;20481;-76
2022/01/24 05:50:45;;;;;;;55.72;28.23;;;4.60;99.90;;;;;;5048021;28;20377;-77
2022/01/24 05:53:13;;;;;;;56.80;29.60;;;4.60;99.90;;;;;;5046620;28;20056;-76
2022/01/24 05:55:41;;;;;;;54.05;29.17;;;4.60;99.90;;;;;;5046007;28;20052;-77
2022/01/24 05:58:09;;;;;;;53.35;29.65;;;4.50;99.90;;;;;;5042714;28;20057;-77
2022/01/24 06:00:37;;;;;;;55.38;29.67;;;4.50;99.90;;;;;;5030102;28;20056;-76
2022/01/24 06:03:05;;;;;;;52.53;28.73;;;4.50;99.90;;;;;;5031416;28;20060;-76
2022/01/24 06:05:33;;;;;;;;;;;4.50;99.90;;;;;;5048915;28;20392;-77
2022/01/24 06:08:00;;;;;;;50.78;27.30;;;4.50;99.90;;;;;;5053401;28;19920;-77
2022/01/24 06:10:29;;;;;;;52.17;26.85;;;4.50;99.90;;;;;;5054350;28;20477;-77
2022/01/24 06:12:57;;;;;;;51.10;26.15;;;4.50;99.90;;;;;;5054885;28;20060;-77
2022/01/24 06:15:25;;;;;;;51.45;25.42;;;4.50;99.90;;;;;;5053219;28;20052;-77
2022/01/24 06:17:52;;;;;;;47.03;26.17;;;4.50;99.90;;;;;;5038063;28;20535;-77
2022/01/24 06:20:20;;;;;;;50.72;25.75;;;4.50;99.90;;;;;;5052451;28;20044;-77
2022/01/24 06:22:48;;;;;;;49.42;24.63;;;4.50;99.90;;;;;;5040487;28;20069;-77
2022/01/24 06:25:21;;;;;;;51.60;26.05;;;4.40;99.90;;;;;;5032184;28;20049;-77
2022/01/24 06:27:50;;;;;;;50.88;25.55;;;4.40;99.90;;;;;;5033295;28;20527;-77
2022/01/24 06:30:18;;;;;;;50.97;26.60;;;4.40;99.90;;;;;;5033227;28;20579;-77
2022/01/24 06:32:45;;;;;;;47.75;26.13;;;4.40;99.90;;;;;;5012966;28;20054;-77
2022/01/24 06:35:14;;;;;;;50.30;26.08;;;4.40;99.90;;;;;;5030016;28;20405;-77
2022/01/24 06:37:42;;;;;;;47.65;26.35;;;4.40;99.90;;;;;;5044569;28;20053;-79
2022/01/24 06:40:11;;;;;;;45.70;24.67;;;4.40;99.90;;;;;;5028251;28;20060;-78
2022/01/24 06:42:39;;;;;;;49.80;24.90;;;4.40;99.90;;;;;;5031575;28;20056;-76
2022/01/24 06:45:08;;;;;;;47.08;24.98;;;4.40;99.90;;;;;;5048176;28;20053;-77
2022/01/24 06:47:36;;;;;;;45.90;24.65;;;4.40;99.90;;;;;;5047936;28;20049;-77
2022/01/24 06:50:05;;;;;;;48.95;25.55;;;4.40;99.90;;;;;;5048596;28;20064;-77
2022/01/24 06:52:34;;;;;;;44.55;23.95;;;4.40;99.90;;;;;;5047555;28;20045;-77
2022/01/24 06:55:03;;;;;;;41.30;22.88;;;4.30;99.90;;;;;;5031284;28;20053;-76
2022/01/24 06:57:30;;;;;;;44.42;24.58;;;4.30;99.90;;;;;;5048457;28;20052;-76
2022/01/24 06:59:58;;;;;;;45.83;24.42;;;4.30;99.90;;;;;;5032427;28;20068;-77
2022/01/24 07:02:26;;;;;;;37.75;22.25;;;4.30;99.90;;;;;;5051821;28;20091;-77
2022/01/24 07:04:54;;;;;;;35.88;21.60;;;4.30;99.90;;;;;;5049413;28;20048;-78
2022/01/24 07:07:21;;;;;;;37.92;23.25;;;4.30;99.90;;;;;;5047141;28;20061;-76
2022/01/24 07:09:49;;;;;;;39.63;21.52;;;4.30;99.90;;;;;;5049012;28;20619;-76
2022/01/24 07:12:17;;;;;;;40.17;22.95;;;4.30;99.90;;;;;;5048568;28;20408;-78
2022/01/24 07:14:45;;;;;;;37.63;22.58;;;4.30;99.90;;;;;;5047918;28;20049;-78
2022/01/24 07:17:31;;;;;;;38.05;22.92;;;4.30;99.90;;;;;;5049386;28;20061;-77
2022/01/24 07:19:59;;;;;;;40.35;23.38;;;4.30;99.90;;;;;;5048097;28;20068;-75
2022/01/24 07:22:26;;;;;;;42.83;23.40;;;4.30;99.90;;;;;;5048682;28;20049;-76
2022/01/24 07:24:55;;;;;;;41.03;23.35;;;4.40;99.90;;;;;;5064717;28;20052;-77
2022/01/24 07:27:23;;;;;;;44.33;22.55;;;4.30;99.90;;;;;;5048086;28;20068;-76
2022/01/24 07:29:51;;;;;;;41.75;22.67;;;4.30;99.90;;;;;;5011591;28;20061;-76
2022/01/24 07:32:19;;;;;;;36.65;22.02;;;4.30;99.90;;;;;;5033993;28;20045;-77
2022/01/24 07:34:46;;;;;;;38.22;22.50;;;4.30;99.90;;;;;;5050585;28;20539;-77
2022/01/24 07:37:14;;;;;;;41.45;23.63;;;4.30;99.90;;;;;;5043840;28;20049;-76
2022/01/24 07:39:42;;;;;;;45.08;25.02;;;4.30;99.90;;;;;;5043822;28;20049;-76
2022/01/24 07:42:26;;;;;;;39.95;24.27;;;4.30;99.90;;;;;;5045402;28;20048;-77
2022/01/24 07:44:55;;;;;;;39.35;23.60;;;4.30;99.90;;;;;;5029347;28;20052;-76
2022/01/24 07:47:25;;;;;;;40.97;23.92;;;4.30;99.90;;;;;;5046660;28;20048;-76
2022/01/24 07:49:53;;;;;;;42.33;23.58;;;4.30;99.90;;;;;;5046169;28;20123;-77
2022/01/24 07:52:21;;;;;;;41.35;24.08;;;4.30;99.90;;;;;;5047350;28;20072;-76
2022/01/24 07:54:48;;;;;;;45.40;25.08;;;4.30;99.90;;;;;;5047003;28;20049;-76
2022/01/24 07:57:16;;;;;;;42.08;24.42;;;4.30;99.90;;;;;;5062993;28;20507;-76
2022/01/24 07:59:44;;;;;;;45.67;25.02;;;4.30;99.90;;;;;;5044693;28;20498;-77
2022/01/24 08:02:12;;;;;;;42.45;23.60;;;4.30;99.90;;;;;;5035450;28;20049;-77
2022/01/24 08:04:40;;;;;;;40.58;23.67;;;4.30;99.90;;;;;;5046997;28;20048;-77
2022/01/24 08:07:09;;;;;;;38.50;23.63;;;4.20;99.90;;;;;;5038307;28;20052;-77
2022/01/24 08:09:38;;;;;;;44.10;23.92;;;4.30;99.90;;;;;;5027595;28;20052;-76
2022/01/24 08:12:08;;;;;;;44.20;24.73;;;4.40;99.90;;;;;;5045295;28;20045;-76
2022/01/24 08:14:35;;;;;;;32.65;19.92;;;4.30;99.90;;;;;;5046496;28;20045;-76
2022/01/24 08:17:03;;;;;;;43.28;22.60;;;4.30;99.90;;;;;;5044179;28;20045;-76
2022/01/24 08:19:34;;;;;;;43.38;23.88;;;4.30;99.90;;;;;;5034822;28;20060;-75
2022/01/24 08:22:02;;;;;;;44.67;23.40;;;4.30;99.90;;;;;;5029312;28;20751;-75
2022/01/24 08:24:35;;;;;;;41.63;24.10;;;4.30;99.90;;;;;;5029312;28;20049;-77
2022/01/24 08:27:03;;;;;;;44.08;24.17;;;4.30;99.90;;;;;;5039607;28;20041;-76
2022/01/24 08:29:31;;;;;;;;;;;4.30;99.90;;;;;;5045371;28;20045;-77
2022/01/24 08:31:59;;;;;;;46.80;23.92;;;4.30;99.90;;;;;;5045402;28;19928;-77
2022/01/24 08:34:27;;;;;;;44.70;24.75;;;4.40;99.90;;;;;;5042154;28;20056;-77
2022/01/24 08:36:54;;;;;;;35.65;21.42;;;4.40;99.90;;;;;;5046463;28;20508;-77
2022/01/24 08:39:22;;;;;;;36.80;21.20;;;4.40;99.90;;;;;;5047564;28;20505;-77
2022/01/24 08:46:51;;;;;;;48.88;24.92;;;4.40;99.90;;;;;;5045481;28;20041;-78
2022/01/24 08:49:19;;;;;;;40.28;23.38;;;4.40;99.90;;;;;;5048491;28;20064;-77
2022/01/24 08:51:47;;;;;;;42.30;24.60;;;4.40;99.90;;;;;;5049347;28;20049;-78
2022/01/24 08:54:33;;;;;;;43.50;25.00;;;4.40;99.90;;;;;;5047688;28;20052;-78
2022/01/24 08:57:02;;;;;;;38.03;22.00;;;4.50;99.90;;;;;;5047239;28;20056;-78
2022/01/24 08:59:32;;;;;;;38.17;22.10;;;4.40;99.90;;;;;;5047633;28;20045;-78
2022/01/24 09:02:01;;;;;;;41.30;23.95;;;4.40;99.90;;;;;;5047472;28;20079;-78
2022/01/24 09:04:30;;;;;;;40.90;24.38;;;4.40;99.90;;;;;;5049005;28;20072;-78
2022/01/24 09:07:04;;;;;;;43.63;24.63;;;4.50;99.90;;;;;;5021400;28;20045;-78
2022/01/24 09:09:34;;;;;;;44.45;25.45;;;4.50;99.90;;;;;;5065080;28;20064;-78
2022/01/24 09:12:05;;;;;;;45.22;25.02;;;4.50;99.90;;;;;;5049471;28;20825;-78
2022/01/24 09:14:32;;;;;;;42.13;24.58;;;4.50;99.90;;;;;;5037873;28;20060;-78
2022/01/24 09:17:00;;;;;;;41.85;25.15;;;4.50;99.90;;;;;;5044172;28;20120;-78
2022/01/24 09:19:28;;;;;;;41.75;24.70;;;4.50;99.90;;;;;;5045766;28;20428;-78
2022/01/24 09:21:56;;;;;;;42.40;24.42;;;4.60;99.90;;;;;;5044401;28;20045;-78
2022/01/24 09:24:23;;;;;;;47.45;25.70;;;4.50;99.90;;;;;;5046460;28;20413;-78
2022/01/24 09:26:51;;;;;;;42.85;25.02;;;4.60;99.90;;;;;;5048875;28;20049;-77
2022/01/24 09:29:19;;;;;;;43.13;24.10;;;4.60;99.90;;;;;;5048602;28;20053;-77
2022/01/24 09:31:46;;;;;;;41.55;24.48;;;4.70;99.90;;;;;;5048522;28;20048;-79
2022/01/24 09:34:14;;;;;;;48.50;24.52;;;4.60;99.90;;;;;;5046130;28;20061;-79
2022/01/24 09:36:42;;;;;;;43.28;24.13;;;4.60;99.90;;;;;;5046952;28;20067;-77
2022/01/24 09:39:10;;;;;;;48.00;24.85;;;4.60;99.90;;;;;;5046178;28;20053;-76
2022/01/24 09:41:39;;;;;;;44.08;23.52;;;4.60;99.90;;;;;;5030364;28;20411;-76
2022/01/24 09:44:27;;;;;;;38.00;22.63;;;4.60;99.90;;;;;;5042287;28;20295;-76
2022/01/24 09:46:54;;;;;;;41.05;24.30;;;4.70;99.90;;;;;;5044217;28;20045;-77
2022/01/24 09:49:22;;;;;;;39.03;23.85;;;4.70;99.90;;;;;;5041943;28;20052;-78
2022/01/24 09:51:50;;;;;;;42.33;24.33;;;4.80;99.90;;;;;;5046378;28;20041;-75
2022/01/24 09:54:18;;;;;;;41.35;23.77;;;4.70;99.90;;;;;;5047367;28;20412;-75
2022/01/24 09:56:46;;;;;;;38.28;21.48;;;4.70;99.90;;;;;;5047360;28;20041;-75
2022/01/24 09:59:13;;;;;;;40.88;24.73;;;4.80;99.90;;;;;;5047533;28;20053;-76
2022/01/24 10:01:42;;;;;;;42.33;23.08;;;4.70;99.90;;;;;;5047469;28;20055;-78
2022/01/24 10:04:17;;;;;;;40.03;23.13;;;4.70;99.90;;;;;;5063114;28;20060;-77
2022/01/24 10:07:04;;;;;;;37.72;23.00;;;4.80;99.90;;;;;;5044791;28;20045;-77
2022/01/24 10:09:37;;;;;;;39.85;23.40;;;4.80;99.90;;;;;;5044112;28;20116;-75
2022/01/24 10:12:32;;;;;;;47.10;24.88;;;4.80;99.90;;;;;;5045613;28;20045;-78
2022/01/24 10:17:53;;;;;;;43.80;25.00;;;4.80;99.90;;;;;;5045350;28;20062;-79
2022/01/24 10:20:28;;;;;;;40.85;24.63;;;4.70;99.90;;;;;;5046934;28;20045;-77
2022/01/24 10:23:04;;;;;;;42.45;24.98;;;4.90;99.90;;;;;;5044367;28;20060;-76
2022/01/24 10:25:59;;;;;;;46.78;24.85;;;4.90;99.90;;;;;;5039766;28;20497;-77
2022/01/24 10:28:31;;;;;;;44.95;25.20;;;4.90;99.90;;;;;;5044348;28;20391;-84
2022/01/24 10:31:06;;;;;;;43.70;25.35;;;4.90;99.90;;;;;;5048976;28;20389;-76
2022/01/24 10:34:00;;;;;;;42.47;24.95;;;4.90;99.90;;;;;;5045541;28;20508;-77
2022/01/24 10:36:52;;;;;;;39.10;23.38;;;5.00;99.90;;;;;;5042986;28;20551;-80
2022/01/24 10:45:00;;;;;;;44.42;25.23;;;5.10;99.90;;;;;;5046069;28;20049;-80
2022/01/24 10:47:33;;;;;;;42.92;24.70;;;5.10;99.90;;;;;;5041470;28;20511;-78
2022/01/24 10:50:05;;;;;;;40.55;24.50;;;5.10;99.90;;;;;;5043820;28;20456;-76
2022/01/24 10:52:34;;;;;;;45.15;25.98;;;5.00;99.90;;;;;;5030179;28;20053;-79
2022/01/24 10:55:25;;;;;;;41.63;24.70;;;5.00;99.90;;;;;;5049336;28;20049;-75
2022/01/24 10:58:18;;;;;;;39.33;23.40;;;5.00;99.90;;;;;;5046021;28;20408;-76
2022/01/24 11:00:47;;;;;;;42.05;24.70;;;5.10;99.90;;;;;;5035239;28;20049;-75
2022/01/24 11:03:17;;;;;;;40.20;23.55;;;5.00;99.90;;;;;;5049878;28;20508;-76
2022/01/24 11:05:46;;;;;;;40.00;24.20;;;5.10;99.90;;;;;;5049897;28;20496;-75
2022/01/24 11:08:16;;;;;;;43.45;25.27;;;5.10;99.90;;;;;;5049940;28;20500;-76
2022/01/24 11:10:47;;;;;;;42.88;24.92;;;5.10;99.90;;;;;;5051227;28;20053;-75
2022/01/24 11:13:19;;;;;;;45.65;25.77;;;5.10;99.90;;;;;;5048649;28;20040;-75
2022/01/24 11:15:56;;;;;;;42.22;25.08;;;5.10;99.90;;;;;;5048076;28;20048;-75
2022/01/24 11:18:32;;;;;;;47.17;26.23;;;5.10;99.90;;;;;;5039602;28;20053;-76
2022/01/24 11:21:05;;;;;;;44.22;25.80;;;5.10;99.90;;;;;;5046992;28;20489;-75
2022/01/24 11:23:39;;;;;;;44.80;25.20;;;5.10;99.90;;;;;;5048007;28;20060;-75
2022/01/24 11:26:11;;;;;;;43.45;25.67;;;5.20;99.90;;;;;;5047568;28;20053;-75
2022/01/24 11:28:39;;;;;;;47.45;26.30;;;5.20;99.90;;;;;;5048676;28;20548;-75
2022/01/24 11:31:27;;;;;;;47.83;27.05;;;5.20;99.90;;;;;;5046320;28;20068;-75
2022/01/24 11:34:04;;;;;;;44.08;26.35;;;5.20;99.90;;;;;;5047610;28;20049;-75
2022/01/24 11:36:40;;;;;;;42.75;24.38;;;5.20;99.90;;;;;;5048497;28;20052;-75
2022/01/24 11:39:08;;;;;;;41.88;24.63;;;5.10;99.90;;;;;;5044996;28;20048;-76
2022/01/24 11:41:39;;;;;;;42.30;25.05;;;5.20;99.90;;;;;;5046363;28;20048;-75
2022/01/24 11:44:16;;;;;;;43.47;24.92;;;5.20;99.90;;;;;;5045883;28;20055;-75
2022/01/24 11:46:56;;;;;;;41.63;23.60;;;5.20;99.90;;;;;;5047980;28;20072;-75
2022/01/24 11:49:34;;;;;;;45.08;25.25;;;5.20;99.90;;;;;;5049859;28;20511;-77
2022/01/24 11:52:10;;;;;;;42.65;24.80;;;5.20;99.90;;;;;;5047862;28;20131;-75
2022/01/24 11:55:13;;;;;;;42.67;24.80;;;5.20;99.90;;;;;;5046950;28;20032;-75
2022/01/24 11:57:41;;;;;;;43.55;25.00;;;5.20;99.90;;;;;;5045649;28;20057;-75
2022/01/24 12:00:09;;;;;;;;;;;5.20;99.90;;;;;;5043411;28;20057;-75
2022/01/24 12:02:46;;;;;;;44.17;26.08;;;5.20;99.90;;;;;;5047012;28;20384;-75
2022/01/24 12:05:26;;;;;;;47.08;27.88;;;5.20;99.90;;;;;;5043500;28;20175;-75
2022/01/24 12:08:02;;;;;;;48.00;27.55;;;5.20;99.90;;;;;;5047294;28;20405;-76
2022/01/24 12:10:51;;;;;;;47.22;28.85;;;5.20;99.90;;;;;;5026843;28;20593;-76
2022/01/24 12:13:28;;;;;;;52.83;29.67;;;5.20;99.90;;;;;;5010764;28;20068;-76
2022/01/24 12:16:09;;;;;;;53.50;29.00;;;5.20;99.90;;;;;;5028845;28;20050;-78
2022/01/24 12:18:38;;;;;;;45.40;27.23;;;5.20;99.90;;;;;;5044063;28;20056;-74
2022/01/24 12:21:10;;;;;;;48.65;27.58;;;5.20;99.90;;;;;;5047369;28;20357;-74
2022/01/24 12:23:49;;;;;;;49.67;27.38;;;5.30;99.90;;;;;;5046651;28;20481;-74
2022/01/24 12:26:43;;;;;;;45.33;26.83;;;5.30;99.90;;;;;;5048489;28;20508;-76
2022/01/24 12:29:17;;;;;;;44.47;26.65;;;5.30;99.90;;;;;;5046501;28;20272;-76
2022/01/24 12:31:53;;;;;;;49.08;28.90;;;5.30;99.90;;;;;;5046219;28;20049;-76
2022/01/24 12:34:23;;;;;;;49.30;30.85;;;5.30;99.90;;;;;;5045711;28;20534;-75
2022/01/24 12:37:04;;;;;;;55.78;33.17;;;5.30;99.90;;;;;;5046432;28;20057;-75
2022/01/24 12:39:57;;;;;;;51.40;31.90;;;5.30;99.90;;;;;;5046054;28;20051;-75
2022/01/24 12:42:38;;;;;;;52.10;31.48;;;5.20;99.90;;;;;;5044107;28;20836;-75
2022/01/24 12:48:09;;;;;;;50.78;28.45;;;5.20;99.90;;;;;;5026704;28;20053;-75
2022/01/24 12:50:46;;;;;;;51.15;30.58;;;5.20;99.90;;;;;;5021457;28;20045;-74
2022/01/24 12:53:16;;;;;;;54.00;31.70;;;5.20;99.90;;;;;;5045285;28;20048;-75
2022/01/24 12:55:54;;;;;;;54.00;31.65;;;5.30;99.90;;;;;;5046260;28;20503;-76
2022/01/24 12:58:37;;;;;;;68.75;31.48;;;5.20;99.90;;;;;;5046923;28;20664;-75
2022/01/24 13:01:25;;;;;;;61.45;30.70;;;5.30;99.90;;;;;;5047429;28;20041;-74
2022/01/24 13:03:57;;;;;;;;;;;5.20;99.90;;;;;;5048266;28;20053;-75
2022/01/24 13:06:31;;;;;;;47.78;28.73;;;5.20;99.90;;;;;;5047012;28;19920;-75
2022/01/24 13:09:15;;;;;;;69.57;32.15;;;5.20;99.90;;;;;;5047724;28;20052;-75
2022/01/24 13:11:50;;;;;;;70.57;32.78;;;5.20;99.90;;;;;;5046127;28;20049;-75
2022/01/24 13:14:27;;;;;;;54.65;30.83;;;5.30;99.90;;;;;;5045943;28;20493;-74
2022/01/24 13:25:29;;;;;;;58.30;32.85;;;5.40;99.90;;;;;;5046088;28;20049;-73
2022/01/24 13:27:58;;;;;;;48.17;29.45;;;5.40;99.90;;;;;;5045884;28;20054;-74
2022/01/24 13:30:31;;;;;;;48.53;29.08;;;5.30;99.90;;;;;;5044438;28;20049;-75
2022/01/24 13:33:00;;;;;;;50.60;30.17;;;5.30;99.90;;;;;;5042590;28;20040;-75
2022/01/24 13:35:45;;;;;;;52.28;30.23;;;5.30;99.90;;;;;;5044369;28;20041;-75
2022/01/24 13:38:14;;;;;;;50.65;30.27;;;5.30;99.90;;;;;;5045964;28;20049;-75
2022/01/24 13:40:42;;;;;;;52.25;30.10;;;5.30;99.90;;;;;;5040742;28;20712;-75
2022/01/24 13:43:11;;;;;;;50.20;29.73;;;5.40;99.90;;;;;;5008772;28;20057;-75
2022/01/24 13:45:45;;;;;;;49.72;29.05;;;5.40;99.90;;;;;;5008192;28;20048;-74
2022/01/24 13:48:18;;;;;;;52.65;31.05;;;5.40;99.90;;;;;;5024698;28;20060;-75
2022/01/24 13:50:54;;;;;;;50.50;29.73;;;5.40;99.90;;;;;;5024933;28;20056;-75
2022/01/24 13:53:32;;;;;;;49.85;30.13;;;5.40;99.90;;;;;;5041207;28;20053;-75
2022/01/24 13:56:28;;;;;;;53.53;30.95;;;5.40;99.90;;;;;;5025554;28;20480;-75
2022/01/24 13:59:08;;;;;;;53.08;30.88;;;5.40;99.90;;;;;;5026371;28;20050;-75
2022/01/24 14:01:38;;;;;;;56.75;32.03;;;5.40;99.90;;;;;;5026872;28;20052;-75
2022/01/24 14:04:09;;;;;;;53.95;31.05;;;5.40;99.90;;;;;;5044791;28;20052;-75
2022/01/24 14:06:38;;;;;;;53.55;31.35;;;5.40;99.90;;;;;;5044364;28;20057;-75
2022/01/24 14:09:15;;;;;;;50.30;29.65;;;5.40;99.90;;;;;;5026386;28;20045;-74
2022/01/24 14:11:44;;;;;;;49.35;30.13;;;5.30;99.90;;;;;;5027847;28;20057;-74
2022/01/24 14:14:17;;;;;;;47.80;29.20;;;5.30;99.90;;;;;;5043305;28;20049;-75
2022/01/24 14:19:33;;;;;;;57.97;32.17;;;5.20;99.90;;;;;;5045485;28;20052;-74
2022/01/24 14:22:12;;;;;;;54.65;31.98;;;5.20;99.90;;;;;;5046380;28;20076;-75
2022/01/24 14:24:50;;;;;;;62.65;31.00;;;5.20;99.90;;;;;;5044848;28;20049;-74
2022/01/24 14:27:39;;;;;;;55.90;30.98;;;5.20;99.90;;;;;;5045114;28;20056;-75
2022/01/24 14:30:27;;;;;;;49.90;29.85;;;5.20;99.90;;;;;;5030699;28;20042;-75
2022/01/24 14:33:22;;;;;;;50.25;30.33;;;5.20;99.90;;;;;;5045628;28;20412;-75
2022/01/24 14:35:52;;;;;;;50.35;29.83;;;5.20;99.90;;;;;;5036668;28;20057;-74
2022/01/24 14:38:44;;;;;;;57.15;31.23;;;5.20;99.90;;;;;;5048655;28;20426;-75
2022/01/24 14:41:46;;;;;;;56.92;31.88;;;5.10;99.90;;;;;;5048133;28;20064;-74
2022/01/24 14:47:05;;;;;;;55.28;30.63;;;5.10;99.90;;;;;;5037705;28;20516;-75
2022/01/24 14:49:36;;;;;;;50.88;29.45;;;5.10;99.90;;;;;;5063320;28;20068;-75
2022/01/24 14:52:09;;;;;;;51.60;29.60;;;5.00;99.90;;;;;;5048029;28;20064;-75
2022/01/24 14:54:39;;;;;;;55.88;29.90;;;4.90;99.90;;;;;;5048802;28;20045;-75
2022/01/24 14:57:09;;;;;;;52.05;28.92;;;5.00;99.90;;;;;;5045870;28;20438;-76
2022/01/24 14:59:38;;;;;;;51.78;30.02;;;5.00;99.90;;;;;;5046779;28;20051;-73
2022/01/24 15:02:08;;;;;;;52.35;30.65;;;5.00;99.90;;;;;;5047360;28;20063;-74
2022/01/24 15:04:36;;;;;;;54.65;31.38;;;5.00;99.90;;;;;;5049127;28;20037;-73
2022/01/24 15:07:04;;;;;;;56.13;31.33;;;5.00;99.90;;;;;;5048784;28;20128;-74
2022/01/24 15:09:33;;;;;;;57.25;32.67;;;4.90;99.90;;;;;;5046600;28;20048;-74